Time;durP1;ratioP1;P1;durP2;ratioP2;P2;SDS_P1;SDS_P2;PMS_P1;PMS_P2;Temp;Humidity;BMP_temperature;BMP_pressure;BME280_temperature;BME280_humidity;BME280_pressure;Samples;Min_cycle;Max_cycle;Signal;HPM_P1;HPM_P2
2022/08/28 00:00:08;;;;;;;2.90;1.50;;;24.00;62.60;;;;;;4955759;28;20415;-76
2022/08/28 00:02:37;;;;;;;3.73;2.30;;;24.00;62.50;;;;;;4978703;28;20835;-76
2022/08/28 00:05:07;;;;;;;4.77;2.30;;;24.00;62.60;;;;;;4994609;28;20515;-76
2022/08/28 00:07:41;;;;;;;3.90;1.83;;;24.00;62.60;;;;;;4993988;28;20452;-76
2022/08/28 00:10:09;;;;;;;3.73;1.90;;;24.00;62.60;;;;;;4976344;28;20433;-76
2022/08/28 00:12:39;;;;;;;3.40;2.17;;;24.00;62.60;;;;;;4985711;28;20446;-76
2022/08/28 00:15:10;;;;;;;3.20;1.83;;;24.00;62.60;;;;;;4959163;28;20468;-76
2022/08/28 00:17:39;;;;;;;4.50;1.50;;;23.90;62.50;;;;;;4984088;28;20787;-76
2022/08/28 00:20:08;;;;;;;3.63;1.77;;;23.90;62.50;;;;;;4993540;28;20429;-76
2022/08/28 00:22:35;;;;;;;6.03;1.90;;;23.90;62.50;;;;;;4994210;28;20479;-76
2022/08/28 00:25:04;;;;;;;7.30;2.07;;;23.90;62.50;;;;;;5010530;28;20405;-76
2022/08/28 00:30:14;;;;;;;3.43;2.10;;;23.90;62.50;;;;;;4975218;28;20937;-76
2022/08/28 00:32:40;;;;;;;2.40;1.80;;;23.90;63.30;;;;;;4967558;28;20461;-76
2022/08/28 00:35:07;;;;;;;5.07;2.53;;;23.90;62.50;;;;;;4975888;28;20461;-76
2022/08/28 00:37:35;;;;;;;5.00;2.63;;;23.90;62.40;;;;;;4977117;28;20473;-76
2022/08/28 00:40:02;;;;;;;5.37;2.90;;;23.90;62.40;;;;;;4992263;28;20456;-76
2022/08/28 00:42:33;;;;;;;3.40;2.40;;;23.90;62.50;;;;;;4975826;28;20458;-76
2022/08/28 00:45:01;;;;;;;3.80;2.50;;;23.80;62.30;;;;;;4995093;28;20440;-76
2022/08/28 00:47:27;;;;;;;4.23;2.20;;;23.90;62.50;;;;;;4976867;28;20472;-76
2022/08/28 00:49:55;;;;;;;3.10;1.73;;;23.80;62.30;;;;;;4994634;28;20418;-76
2022/08/28 00:52:25;;;;;;;2.53;2.07;;;23.80;62.30;;;;;;4990698;28;20473;-76
2022/08/28 00:55:12;;;;;;;5.10;2.50;;;23.80;62.30;;;;;;4974847;28;20486;-77
2022/08/28 00:57:49;;;;;;;4.30;2.33;;;23.80;62.30;;;;;;4993881;28;20429;-76
2022/08/28 01:00:22;;;;;;;3.43;2.70;;;23.80;62.30;;;;;;4977014;28;20418;-77
2022/08/28 01:02:53;;;;;;;4.13;2.53;;;23.80;62.20;;;;;;4958137;28;20560;-76
2022/08/28 01:05:21;;;;;;;4.50;2.60;;;23.80;62.20;;;;;;4990925;28;20543;-76
2022/08/28 01:07:51;;;;;;;3.93;2.70;;;23.80;62.20;;;;;;4992365;28;20842;-76
2022/08/28 01:10:24;;;;;;;4.77;2.70;;;23.80;62.20;;;;;;4993594;28;20488;-76
2022/08/28 01:12:55;;;;;;;4.73;2.73;;;23.80;62.10;;;;;;4974156;28;21138;-77
2022/08/28 01:15:30;;;;;;;4.30;2.67;;;23.80;63.00;;;;;;4973853;28;20485;-76
2022/08/28 01:18:02;;;;;;;5.70;2.83;;;23.80;62.10;;;;;;4992695;28;20501;-76
2022/08/28 01:20:39;;;;;;;6.37;2.77;;;23.80;62.10;;;;;;4980371;28;20428;-76
2022/08/28 01:23:31;;;;;;;3.20;2.50;;;23.80;62.10;;;;;;4994311;28;20488;-76
2022/08/28 01:25:59;;;;;;;2.63;2.23;;;23.70;62.10;;;;;;4965883;28;20899;-76
2022/08/28 01:28:25;;;;;;;5.30;2.97;;;23.70;62.10;;;;;;4975159;28;20490;-76
2022/08/28 01:30:54;;;;;;;4.17;3.37;;;23.70;62.10;;;;;;4976743;28;20456;-76
2022/08/28 01:33:20;;;;;;;5.73;2.60;;;23.70;62.10;;;;;;4976237;28;20453;-76
2022/08/28 01:35:49;;;;;;;7.03;3.00;;;23.70;62.10;;;;;;4958219;28;20835;-76
2022/08/28 01:38:20;;;;;;;4.63;2.50;;;23.70;62.10;;;;;;4980451;28;20432;-77
2022/08/28 01:40:52;;;;;;;7.43;3.57;;;23.70;62.20;;;;;;4964947;28;21092;-76
2022/08/28 01:43:25;;;;;;;5.50;3.00;;;23.70;62.10;;;;;;4960965;28;20485;-75
2022/08/28 01:46:00;;;;;;;4.77;2.50;;;23.70;62.10;;;;;;4964219;28;20516;-76
2022/08/28 01:48:32;;;;;;;5.80;3.13;;;23.70;62.80;;;;;;4991083;28;20409;-76
2022/08/28 01:51:02;;;;;;;4.57;3.10;;;23.60;62.00;;;;;;4981103;28;20925;-76
2022/08/28 01:53:31;;;;;;;5.07;3.20;;;23.70;62.00;;;;;;4992196;28;20445;-75
2022/08/28 01:55:59;;;;;;;6.17;3.43;;;23.70;62.00;;;;;;4974569;28;20437;-76
2022/08/28 01:58:26;;;;;;;8.10;4.03;;;23.70;62.10;;;;;;4974300;28;20402;-76
2022/08/28 02:00:52;;;;;;;5.20;3.00;;;23.70;62.10;;;;;;4973207;28;20533;-76
2022/08/28 02:03:22;;;;;;;4.63;2.97;;;23.60;62.00;;;;;;4957621;28;20474;-75
2022/08/28 02:05:51;;;;;;;7.83;3.27;;;23.60;62.00;;;;;;4992643;28;21141;-76
2022/08/28 02:08:22;;;;;;;6.03;3.40;;;23.60;62.00;;;;;;4993063;28;20498;-76
2022/08/28 02:10:50;;;;;;;4.00;3.13;;;23.60;62.00;;;;;;4963325;28;20957;-76
2022/08/28 02:13:16;;;;;;;7.40;3.50;;;23.60;62.10;;;;;;4961704;28;20465;-76
2022/08/28 02:15:47;;;;;;;6.33;3.70;;;23.60;62.10;;;;;;4976431;28;20424;-77
2022/08/28 02:18:14;;;;;;;6.20;3.67;;;23.60;62.10;;;;;;4990696;28;20536;-76
2022/08/28 02:20:42;;;;;;;5.73;3.30;;;23.60;62.10;;;;;;4988899;28;20431;-76
2022/08/28 02:23:09;;;;;;;10.77;4.00;;;23.60;62.10;;;;;;4979495;28;21049;-77
2022/08/28 02:25:42;;;;;;;6.67;3.80;;;23.60;62.20;;;;;;4992444;28;20800;-76
2022/08/28 02:28:13;;;;;;;7.10;3.83;;;23.60;62.10;;;;;;4984903;28;20410;-76
2022/08/28 02:30:41;;;;;;;5.50;3.57;;;23.60;62.20;;;;;;4978679;28;20494;-76
2022/08/28 02:33:09;;;;;;;5.90;3.53;;;23.50;62.00;;;;;;4975721;28;20461;-76
2022/08/28 02:35:41;;;;;;;8.70;4.40;;;23.60;62.20;;;;;;4989264;28;20453;-76
2022/08/28 02:38:08;;;;;;;6.60;3.43;;;23.50;62.10;;;;;;4965101;28;20840;-76
2022/08/28 02:40:35;;;;;;;5.70;3.30;;;23.50;62.00;;;;;;4966452;28;20508;-76
2022/08/28 02:43:03;;;;;;;5.37;3.90;;;23.50;62.00;;;;;;4973547;28;20469;-76
2022/08/28 02:45:29;;;;;;;5.60;3.60;;;23.50;62.00;;;;;;4974088;28;20507;-76
2022/08/28 02:47:56;;;;;;;5.60;4.10;;;23.50;62.00;;;;;;4960198;28;20461;-75
2022/08/28 02:50:24;;;;;;;9.70;3.90;;;23.40;61.90;;;;;;4988723;28;20426;-76
2022/08/28 02:52:53;;;;;;;7.67;4.10;;;23.40;62.00;;;;;;4972551;28;20446;-76
2022/08/28 02:55:23;;;;;;;6.17;3.33;;;23.50;62.20;;;;;;4988688;28;20448;-76
2022/08/28 02:57:53;;;;;;;8.77;3.97;;;23.40;62.00;;;;;;4992348;28;20460;-76
2022/08/28 03:00:22;;;;;;;7.60;3.90;;;23.40;62.00;;;;;;4991475;28;20458;-76
2022/08/28 03:02:49;;;;;;;8.17;4.33;;;23.40;62.00;;;;;;4989205;28;20481;-76
2022/08/28 03:05:23;;;;;;;5.87;4.00;;;23.40;62.00;;;;;;4972689;28;20458;-76
2022/08/28 03:07:55;;;;;;;5.73;3.87;;;23.40;62.00;;;;;;4961193;28;20447;-76
2022/08/28 03:10:21;;;;;;;8.77;4.00;;;23.40;62.10;;;;;;4961723;28;20429;-76
2022/08/28 03:12:50;;;;;;;5.90;3.47;;;23.40;62.10;;;;;;4988918;28;20450;-76
2022/08/28 03:15:17;;;;;;;6.87;4.20;;;23.40;62.10;;;;;;4956162;28;20438;-76
2022/08/28 03:17:45;;;;;;;9.37;3.53;;;23.40;62.10;;;;;;4976500;28;20428;-76
2022/08/28 03:20:15;;;;;;;6.17;3.90;;;23.30;62.00;;;;;;4972744;28;20937;-76
2022/08/28 03:25:29;;;;;;;9.00;4.30;;;23.30;62.10;;;;;;4994075;28;20793;-76
2022/08/28 03:27:59;;;;;;;7.27;4.00;;;23.30;62.10;;;;;;4995826;28;20552;-76
2022/08/28 03:30:28;;;;;;;6.30;3.60;;;23.30;62.80;;;;;;4989038;28;20811;-76
2022/08/28 03:32:55;;;;;;;6.20;3.97;;;23.30;62.10;;;;;;4975690;28;20480;-76
2022/08/28 03:35:23;;;;;;;7.83;4.03;;;23.30;62.10;;;;;;4960463;28;20916;-76
2022/08/28 03:37:50;;;;;;;6.07;3.67;;;23.30;62.10;;;;;;4967835;28;20445;-76
2022/08/28 03:40:19;;;;;;;7.67;3.80;;;23.30;62.10;;;;;;4975654;28;20955;-76
2022/08/28 03:42:45;;;;;;;6.00;3.67;;;23.30;62.20;;;;;;4982037;28;20517;-76
2022/08/28 03:45:13;;;;;;;6.53;3.93;;;23.30;62.10;;;;;;4988997;28;20417;-76
2022/08/28 03:47:40;;;;;;;7.20;4.37;;;23.30;62.10;;;;;;4993890;28;20776;-76
2022/08/28 03:50:10;;;;;;;7.70;3.43;;;23.30;62.10;;;;;;4959895;28;20464;-77
2022/08/28 03:52:37;;;;;;;4.87;3.60;;;23.30;62.10;;;;;;4969005;28;20460;-75
2022/08/28 03:55:07;;;;;;;6.87;4.00;;;23.20;62.10;;;;;;4966775;28;20457;-76
2022/08/28 03:57:36;;;;;;;6.90;4.00;;;23.20;62.10;;;;;;4985890;28;20469;-76
2022/08/28 04:00:05;;;;;;;7.10;3.87;;;23.20;62.10;;;;;;4977162;28;20414;-76
2022/08/28 04:02:40;;;;;;;6.40;3.67;;;23.20;62.20;;;;;;4961982;28;20470;-76
2022/08/28 04:05:07;;;;;;;6.93;4.33;;;23.20;62.20;;;;;;4987131;28;20428;-75
2022/08/28 04:07:33;;;;;;;5.50;3.80;;;23.20;62.10;;;;;;4994567;28;20851;-77
2022/08/28 04:10:03;;;;;;;7.27;3.50;;;23.20;62.20;;;;;;4986043;28;20453;-75
2022/08/28 04:12:30;;;;;;;6.40;3.27;;;23.20;62.20;;;;;;4988656;28;20446;-76
2022/08/28 04:14:56;;;;;;;6.47;4.00;;;23.20;62.30;;;;;;4984917;28;20454;-76
2022/08/28 04:17:27;;;;;;;5.33;3.27;;;23.20;62.30;;;;;;4993823;28;20495;-75
2022/08/28 04:20:00;;;;;;;7.87;3.90;;;23.20;62.30;;;;;;4990472;28;20433;-76
2022/08/28 04:22:26;;;;;;;5.33;3.60;;;23.20;62.30;;;;;;4967386;28;20468;-76
2022/08/28 04:24:54;;;;;;;4.63;3.30;;;23.20;62.30;;;;;;4974698;28;20437;-76
2022/08/28 04:27:23;;;;;;;5.13;3.60;;;23.10;62.20;;;;;;4982640;28;20457;-76
2022/08/28 04:29:49;;;;;;;5.40;3.33;;;23.10;62.20;;;;;;4975165;28;20453;-76
2022/08/28 04:32:15;;;;;;;6.67;3.73;;;23.10;62.30;;;;;;4976106;28;20521;-76
2022/08/28 04:34:41;;;;;;;6.80;3.00;;;23.10;62.20;;;;;;4983219;28;20441;-77
2022/08/28 04:37:11;;;;;;;5.40;3.27;;;23.10;62.30;;;;;;4995596;28;20414;-76
2022/08/28 04:39:42;;;;;;;4.97;3.93;;;23.10;62.30;;;;;;4976255;28;20498;-76
2022/08/28 04:42:10;;;;;;;6.90;4.10;;;23.10;62.30;;;;;;4993226;28;20492;-76
2022/08/28 04:44:39;;;;;;;5.13;3.77;;;23.10;62.30;;;;;;4985917;28;20446;-76
2022/08/28 04:47:07;;;;;;;5.37;3.17;;;23.10;62.30;;;;;;4958741;28;20434;-76
2022/08/28 04:49:34;;;;;;;6.20;3.47;;;23.10;62.40;;;;;;4973965;28;20445;-76
2022/08/28 04:52:01;;;;;;;7.23;3.57;;;23.10;62.40;;;;;;4979577;28;20417;-76
2022/08/28 04:54:27;;;;;;;4.40;3.13;;;23.10;62.40;;;;;;4989547;28;20450;-76
2022/08/28 04:56:58;;;;;;;5.10;3.23;;;23.00;62.40;;;;;;4962269;28;20421;-76
2022/08/28 04:59:24;;;;;;;4.40;2.80;;;23.00;62.40;;;;;;4993614;28;20425;-76
2022/08/28 05:01:50;;;;;;;5.17;3.40;;;23.00;62.40;;;;;;4974601;28;20458;-76
2022/08/28 05:04:18;;;;;;;5.47;3.70;;;23.00;62.40;;;;;;4978282;28;20608;-76
2022/08/28 05:06:47;;;;;;;6.20;3.40;;;23.00;62.40;;;;;;4993800;28;20969;-76
2022/08/28 05:09:18;;;;;;;5.33;3.33;;;23.00;62.50;;;;;;4989120;28;20506;-76
2022/08/28 05:11:48;;;;;;;8.30;3.87;;;23.00;62.50;;;;;;4976316;28;20429;-76
2022/08/28 05:14:16;;;;;;;4.97;3.00;;;23.00;62.50;;;;;;4971526;28;20456;-76
2022/08/28 05:16:45;;;;;;;6.60;3.47;;;23.00;62.50;;;;;;4993442;28;20417;-76
2022/08/28 05:19:20;;;;;;;5.80;3.60;;;23.00;62.50;;;;;;4979104;28;20549;-76
2022/08/28 05:21:49;;;;;;;5.80;3.20;;;23.00;62.50;;;;;;4975576;28;20437;-76
2022/08/28 05:24:18;;;;;;;7.50;3.73;;;23.00;62.60;;;;;;4986494;28;20511;-76
2022/08/28 05:26:44;;;;;;;5.10;3.77;;;22.90;62.50;;;;;;4977097;28;20524;-76
2022/08/28 05:29:13;;;;;;;6.63;3.60;;;22.90;62.40;;;;;;4973536;28;20812;-76
2022/08/28 05:31:42;;;;;;;5.07;3.43;;;22.90;62.40;;;;;;4990335;28;20429;-76
2022/08/28 05:34:09;;;;;;;5.57;3.67;;;22.90;62.50;;;;;;4988711;28;20448;-76
2022/08/28 05:36:38;;;;;;;5.57;3.23;;;22.90;62.40;;;;;;4976654;28;20958;-76
2022/08/28 05:39:09;;;;;;;6.40;3.57;;;22.90;62.50;;;;;;4992215;28;20969;-76
2022/08/28 05:41:38;;;;;;;4.77;3.10;;;22.90;62.50;;;;;;4991150;28;20471;-76
2022/08/28 05:44:11;;;;;;;5.83;3.47;;;22.90;62.50;;;;;;4966009;28;20461;-76
2022/08/28 05:46:46;;;;;;;4.13;3.17;;;22.90;62.60;;;;;;4990524;28;20470;-76
2022/08/28 05:49:16;;;;;;;5.53;3.47;;;22.90;62.60;;;;;;4957135;28;20430;-76
2022/08/28 05:51:42;;;;;;;6.23;2.97;;;22.90;62.60;;;;;;4976478;28;20502;-76
2022/08/28 05:54:15;;;;;;;6.53;3.40;;;22.80;62.50;;;;;;4982527;28;20468;-76
2022/08/28 05:56:42;;;;;;;5.27;3.13;;;22.90;62.60;;;;;;4984568;28;20847;-76
2022/08/28 05:59:09;;;;;;;5.70;3.80;;;22.90;62.60;;;;;;4984511;28;20477;-76
2022/08/28 06:01:40;;;;;;;6.83;3.63;;;22.80;62.50;;;;;;4980732;28;21010;-76
2022/08/28 06:04:14;;;;;;;6.37;3.27;;;22.80;62.50;;;;;;4965480;28;20551;-76
2022/08/28 06:06:45;;;;;;;6.17;3.57;;;22.80;62.60;;;;;;5008231;28;20499;-76
2022/08/28 06:09:15;;;;;;;4.53;3.17;;;22.80;62.60;;;;;;4990917;28;20519;-76
2022/08/28 06:11:43;;;;;;;5.07;3.00;;;22.80;62.60;;;;;;4991553;28;20441;-76
2022/08/28 06:14:19;;;;;;;6.40;3.47;;;22.80;62.60;;;;;;4972588;28;20532;-76
2022/08/28 06:16:49;;;;;;;7.03;3.67;;;22.80;62.60;;;;;;4974879;28;20504;-76
2022/08/28 06:19:16;;;;;;;4.50;3.00;;;22.80;62.70;;;;;;4991524;28;21024;-76
2022/08/28 06:21:47;;;;;;;5.20;3.37;;;22.80;62.70;;;;;;4958602;28;20484;-76
2022/08/28 06:24:13;;;;;;;5.47;2.97;;;22.80;62.90;;;;;;4975810;28;20469;-76
2022/08/28 06:26:41;;;;;;;5.27;2.73;;;22.80;62.70;;;;;;4953269;29;20442;-76
2022/08/28 06:29:11;;;;;;;5.43;3.10;;;22.70;62.70;;;;;;4977133;28;20448;-76
2022/08/28 06:31:38;;;;;;;5.33;3.07;;;22.80;62.80;;;;;;4973561;28;21002;-75
2022/08/28 06:34:04;;;;;;;5.67;3.43;;;22.70;62.70;;;;;;4992285;28;20441;-76
2022/08/28 06:36:33;;;;;;;5.70;3.07;;;22.70;62.80;;;;;;4993344;28;20835;-76
2022/08/28 06:39:01;;;;;;;6.63;3.37;;;22.70;62.80;;;;;;4990872;28;20540;-74
2022/08/28 06:41:34;;;;;;;4.70;2.57;;;22.70;62.80;;;;;;4963238;28;20454;-76
2022/08/28 06:44:01;;;;;;;5.67;3.33;;;22.70;62.80;;;;;;4970039;28;20833;-76
2022/08/28 06:46:32;;;;;;;4.83;3.07;;;22.70;62.80;;;;;;4971601;28;20497;-76
2022/08/28 06:49:05;;;;;;;4.80;2.97;;;22.70;62.90;;;;;;5000958;28;20444;-76
2022/08/28 06:51:31;;;;;;;5.13;3.07;;;22.70;62.90;;;;;;4970422;28;20426;-76
2022/08/28 06:53:57;;;;;;;5.80;3.10;;;22.70;62.80;;;;;;4986359;28;21283;-75
2022/08/28 06:56:28;;;;;;;4.70;2.93;;;22.70;62.90;;;;;;4973814;28;21012;-75
2022/08/28 06:58:57;;;;;;;3.50;2.83;;;22.70;62.90;;;;;;4986115;28;20457;-75
2022/08/28 07:01:28;;;;;;;5.03;2.90;;;22.70;62.90;;;;;;4954611;28;20430;-76
2022/08/28 07:04:08;;;;;;;4.30;2.90;;;22.70;62.90;;;;;;4966573;28;20469;-74
2022/08/28 07:06:39;;;;;;;6.47;3.47;;;22.70;63.00;;;;;;4953824;28;20478;-76
2022/08/28 07:09:14;;;;;;;3.80;2.67;;;22.70;62.90;;;;;;4990033;28;20421;-76
2022/08/28 07:11:45;;;;;;;7.17;3.40;;;22.70;63.00;;;;;;4972650;28;20457;-76
2022/08/28 07:14:14;;;;;;;5.10;2.77;;;22.70;63.00;;;;;;4986502;28;20487;-76
2022/08/28 07:16:43;;;;;;;5.60;3.20;;;22.70;63.00;;;;;;4988498;28;20500;-76
2022/08/28 07:19:10;;;;;;;7.10;2.90;;;22.70;63.00;;;;;;4955238;28;20466;-76
2022/08/28 07:21:42;;;;;;;8.70;3.40;;;22.70;63.00;;;;;;4989428;28;20451;-76
2022/08/28 07:24:13;;;;;;;5.03;2.97;;;22.70;63.00;;;;;;4970962;28;20557;-76
2022/08/28 07:26:40;;;;;;;5.27;2.90;;;22.70;63.00;;;;;;4980320;28;20433;-76
2022/08/28 07:29:09;;;;;;;5.10;2.93;;;22.70;63.00;;;;;;4986015;28;20422;-74
2022/08/28 07:31:36;;;;;;;4.23;2.77;;;22.60;63.00;;;;;;4967778;28;20917;-76
2022/08/28 07:34:02;;;;;;;5.07;3.13;;;22.70;63.00;;;;;;4955505;28;20481;-76
2022/08/28 07:36:51;;;;;;;6.60;3.40;;;22.60;63.10;;;;;;4936422;28;20456;-76
2022/08/28 07:39:22;;;;;;;7.93;3.00;;;22.70;63.10;;;;;;4941292;29;20513;-76
2022/08/28 07:42:08;;;;;;;11.23;3.50;;;22.60;63.00;;;;;;4938842;28;20482;-75
2022/08/28 07:44:53;;;;;;;6.13;3.03;;;22.60;63.00;;;;;;4932553;29;20469;-76
2022/08/28 07:47:19;;;;;;;6.70;3.20;;;22.60;63.00;;;;;;4929737;29;20824;-76
2022/08/28 07:49:47;;;;;;;5.83;2.97;;;22.60;63.00;;;;;;4937783;29;20471;-76
2022/08/28 07:52:16;;;;;;;4.47;3.23;;;22.70;63.10;;;;;;4917047;29;20432;-75
2022/08/28 07:54:42;;;;;;;5.40;3.07;;;22.60;63.00;;;;;;4929414;29;20523;-76
2022/08/28 07:57:09;;;;;;;7.70;3.30;;;22.70;63.00;;;;;;4933040;29;20516;-76
2022/08/28 07:59:41;;;;;;;6.40;2.73;;;22.70;63.00;;;;;;4942688;29;20424;-75
2022/08/28 08:02:10;;;;;;;4.30;2.70;;;22.60;62.80;;;;;;4932685;29;20506;-75
2022/08/28 08:04:41;;;;;;;5.77;2.80;;;22.60;62.80;;;;;;4948374;29;20466;-74
2022/08/28 08:07:11;;;;;;;3.97;2.47;;;22.70;63.00;;;;;;4935949;29;20438;-75
2022/08/28 08:09:43;;;;;;;5.60;2.70;;;22.70;62.90;;;;;;4936475;28;20445;-76
2022/08/28 08:12:11;;;;;;;4.27;2.80;;;22.60;62.70;;;;;;4951967;29;20468;-76
2022/08/28 08:14:40;;;;;;;5.63;3.37;;;22.60;62.70;;;;;;4995930;28;20912;-76
2022/08/28 08:17:07;;;;;;;5.90;2.90;;;22.60;62.70;;;;;;4991950;28;20429;-76
2022/08/28 08:19:40;;;;;;;3.73;2.50;;;22.60;62.70;;;;;;4970270;28;20448;-76
2022/08/28 08:22:07;;;;;;;4.83;2.80;;;22.70;62.80;;;;;;4977975;28;20496;-75
2022/08/28 08:24:36;;;;;;;5.17;2.47;;;22.70;62.80;;;;;;4980848;28;20457;-75
2022/08/28 08:27:02;;;;;;;5.43;2.37;;;22.70;62.70;;;;;;4993569;28;20787;-76
2022/08/28 08:29:34;;;;;;;6.13;2.90;;;22.70;62.70;;;;;;4984491;28;20429;-75
2022/08/28 08:32:06;;;;;;;9.07;2.57;;;22.60;62.50;;;;;;4970736;28;20445;-76
2022/08/28 08:34:44;;;;;;;7.80;3.00;;;22.70;62.60;;;;;;4963539;28;20515;-75
2022/08/28 08:37:13;;;;;;;6.00;3.00;;;22.70;63.50;;;;;;4973273;28;20518;-75
2022/08/28 08:39:41;;;;;;;6.57;2.93;;;22.70;62.60;;;;;;4971299;28;20982;-76
2022/08/28 08:42:32;;;;;;;4.47;2.40;;;22.70;62.50;;;;;;4992296;28;20544;-75
2022/08/28 08:45:12;;;;;;;3.63;2.60;;;22.70;62.40;;;;;;4958265;28;20718;-75
2022/08/28 08:47:51;;;;;;;6.37;2.80;;;22.70;62.50;;;;;;4972357;28;20827;-74
2022/08/28 08:50:33;;;;;;;3.90;2.70;;;22.70;62.40;;;;;;4972051;28;20936;-75
2022/08/28 08:53:24;;;;;;;4.93;2.97;;;22.80;62.50;;;;;;4984988;28;20461;-75
2022/08/28 08:55:53;;;;;;;4.17;3.00;;;22.80;62.50;;;;;;4992705;28;20425;-76
2022/08/28 08:58:32;;;;;;;5.10;2.80;;;22.80;62.40;;;;;;4994237;28;20556;-74
2022/08/28 09:01:11;;;;;;;4.33;2.53;;;22.80;62.30;;;;;;4991461;28;20449;-75
2022/08/28 09:04:08;;;;;;;6.47;2.60;;;22.80;62.30;;;;;;4974552;28;20847;-74
2022/08/28 09:06:43;;;;;;;4.97;2.60;;;22.80;62.20;;;;;;4993886;28;20434;-74
2022/08/28 09:09:28;;;;;;;4.20;2.73;;;22.80;62.10;;;;;;4974444;28;21076;-73
2022/08/28 09:12:16;;;;;;;3.87;2.60;;;22.80;62.10;;;;;;4977566;28;20937;-76
2022/08/28 09:15:25;;;;;;;6.13;2.70;;;22.80;62.10;;;;;;4987159;28;20466;-75
2022/08/28 09:18:08;;;;;;;6.77;2.70;;;22.90;62.20;;;;;;4978748;28;20973;-74
2022/08/28 09:20:34;;;;;;;4.33;2.60;;;22.90;62.10;;;;;;4970556;28;20531;-73
2022/08/28 09:23:03;;;;;;;6.30;2.53;;;22.90;62.10;;;;;;4994343;28;20465;-75
2022/08/28 09:25:50;;;;;;;3.53;2.67;;;22.90;62.00;;;;;;4945633;29;20439;-72
2022/08/28 09:28:25;;;;;;;4.20;2.93;;;22.90;62.00;;;;;;4956431;29;20411;-72
2022/08/28 09:31:08;;;;;;;5.10;2.70;;;22.90;61.90;;;;;;4939387;29;20449;-73
2022/08/28 09:33:43;;;;;;;5.97;3.33;;;22.90;61.80;;;;;;4955654;28;20815;-72
2022/08/28 09:36:30;;;;;;;5.93;2.47;;;23.00;61.90;;;;;;4955232;29;20409;-72
2022/08/28 09:39:18;;;;;;;5.20;3.00;;;23.00;61.80;;;;;;4961331;28;20995;-74
2022/08/28 09:44:55;;;;;;;7.60;3.17;;;23.10;61.60;;;;;;4953136;28;20463;-74
2022/08/28 09:47:44;;;;;;;5.30;2.90;;;23.10;61.40;;;;;;4971243;28;20423;-74
2022/08/28 09:50:34;;;;;;;4.83;2.50;;;23.10;61.30;;;;;;4977888;28;20464;-74
2022/08/28 09:53:08;;;;;;;7.73;2.60;;;23.20;61.40;;;;;;4992156;28;20446;-74
2022/08/28 09:55:54;;;;;;;5.77;2.47;;;23.20;61.30;;;;;;4993433;28;20441;-73
2022/08/28 09:58:22;;;;;;;7.33;2.80;;;23.20;61.40;;;;;;4992657;28;20430;-74
2022/08/28 10:00:57;;;;;;;8.83;3.37;;;23.20;61.10;;;;;;4989736;28;20413;-72
2022/08/28 10:03:35;;;;;;;5.70;2.90;;;23.20;60.80;;;;;;4972596;28;20553;-72
2022/08/28 10:06:28;;;;;;;5.17;2.57;;;23.20;60.70;;;;;;4959951;28;20429;-73
2022/08/28 10:09:04;;;;;;;5.17;2.50;;;23.30;60.70;;;;;;4991813;28;20942;-73
2022/08/28 10:11:35;;;;;;;3.87;2.43;;;23.30;60.50;;;;;;4987901;28;20765;-72
2022/08/28 10:14:22;;;;;;;6.07;2.50;;;23.30;60.40;;;;;;4992127;28;21055;-72
2022/08/28 10:17:05;;;;;;;5.17;2.30;;;23.40;60.50;;;;;;4972943;28;20434;-73
2022/08/28 10:19:47;;;;;;;5.50;2.43;;;23.40;60.40;;;;;;4977906;28;20417;-73
2022/08/28 10:22:29;;;;;;;2.70;2.10;;;23.40;60.30;;;;;;4993398;28;20425;-75
2022/08/28 10:25:01;;;;;;;4.90;2.23;;;23.40;60.40;;;;;;4992692;28;20464;-74
2022/08/28 10:27:49;;;;;;;6.30;2.83;;;23.50;60.40;;;;;;4993595;28;20488;-71
2022/08/28 10:30:20;;;;;;;5.30;2.53;;;23.50;60.10;;;;;;4976406;28;20444;-73
2022/08/28 10:32:58;;;;;;;4.90;2.63;;;23.50;60.10;;;;;;4975842;28;20442;-73
2022/08/28 10:35:30;;;;;;;3.13;2.20;;;23.60;60.30;;;;;;4988537;28;20424;-72
2022/08/28 10:38:18;;;;;;;4.17;2.80;;;23.60;60.20;;;;;;4992734;28;20456;-75
2022/08/28 10:40:59;;;;;;;3.60;2.40;;;23.60;60.10;;;;;;4976051;28;20398;-73
2022/08/28 10:43:53;;;;;;;4.43;2.40;;;23.70;60.20;;;;;;4985329;28;20500;-72
2022/08/28 10:46:23;;;;;;;4.40;2.57;;;23.70;60.10;;;;;;4956336;28;20525;-75
2022/08/28 10:49:25;;;;;;;6.50;2.90;;;23.70;60.10;;;;;;4972492;28;20398;-74
2022/08/28 10:52:00;;;;;;;5.53;2.80;;;23.70;60.00;;;;;;4981532;28;20424;-75
2022/08/28 10:55:08;;;;;;;4.00;2.40;;;23.80;59.80;;;;;;4972810;28;20540;-75
2022/08/28 10:57:56;;;;;;;3.53;2.40;;;23.80;59.80;;;;;;4962094;28;20829;-74
2022/08/28 11:00:30;;;;;;;3.80;2.83;;;23.80;59.70;;;;;;4986604;28;20520;-75
2022/08/28 11:03:00;;;;;;;2.97;2.30;;;23.90;59.80;;;;;;4973584;28;20473;-75
2022/08/28 11:05:36;;;;;;;4.20;2.60;;;23.90;59.70;;;;;;4971796;28;20799;-76
2022/08/28 11:08:07;;;;;;;3.80;2.50;;;23.90;59.60;;;;;;4975251;28;20403;-74
2022/08/28 11:10:33;;;;;;;3.70;2.43;;;24.00;59.70;;;;;;4960481;28;20434;-73
2022/08/28 11:13:01;;;;;;;3.23;1.90;;;24.00;59.60;;;;;;4983290;28;20892;-75
2022/08/28 11:15:27;;;;;;;2.97;2.40;;;24.00;59.40;;;;;;4977231;28;20426;-73
2022/08/28 11:17:55;;;;;;;3.53;2.40;;;24.00;59.40;;;;;;4972432;28;20422;-74
2022/08/28 11:20:28;;;;;;;4.13;2.50;;;24.10;59.30;;;;;;4956662;28;20426;-75
2022/08/28 11:23:09;;;;;;;9.10;2.83;;;24.10;59.10;;;;;;4990847;28;20508;-77
2022/08/28 11:25:57;;;;;;;3.37;2.13;;;24.20;59.30;;;;;;4991852;28;20508;-74
2022/08/28 11:28:35;;;;;;;3.30;2.13;;;24.20;59.10;;;;;;4992022;28;21008;-75
2022/08/28 11:31:04;;;;;;;4.80;2.80;;;24.20;59.10;;;;;;4988401;28;20962;-74
2022/08/28 11:33:51;;;;;;;6.07;2.50;;;24.20;59.00;;;;;;4956473;28;20454;-75
2022/08/28 11:36:28;;;;;;;2.63;1.87;;;24.30;59.00;;;;;;4953337;29;20423;-74
2022/08/28 11:39:13;;;;;;;3.30;2.23;;;24.30;59.00;;;;;;4962635;28;20448;-75
2022/08/28 11:42:10;;;;;;;4.00;2.70;;;24.30;59.00;;;;;;4992310;28;20903;-75
2022/08/28 11:44:45;;;;;;;5.03;2.60;;;24.40;58.90;;;;;;4988391;28;20850;-74
2022/08/28 11:47:46;;;;;;;3.60;2.47;;;24.40;58.80;;;;;;4983084;28;20421;-74
2022/08/28 11:50:24;;;;;;;2.73;2.07;;;24.40;58.60;;;;;;4994739;28;20431;-75
2022/08/28 11:53:02;;;;;;;3.43;2.53;;;24.50;58.60;;;;;;4982160;28;20957;-75
2022/08/28 11:55:59;;;;;;;4.10;2.90;;;24.50;58.60;;;;;;4993370;28;20412;-75
2022/08/28 11:58:46;;;;;;;4.33;2.43;;;24.50;58.60;;;;;;4975173;28;20465;-75
2022/08/28 12:01:27;;;;;;;3.87;2.20;;;24.50;58.40;;;;;;4959272;28;20442;-74
2022/08/28 12:04:27;;;;;;;4.93;2.60;;;24.60;58.50;;;;;;4975758;28;20500;-74
2022/08/28 12:07:15;;;;;;;5.23;1.90;;;24.60;58.50;;;;;;4975466;28;20426;-75
2022/08/28 12:09:51;;;;;;;3.27;2.30;;;24.60;58.40;;;;;;4979903;28;20429;-75
2022/08/28 12:12:19;;;;;;;2.90;2.40;;;24.70;58.20;;;;;;4990053;28;20535;-76
2022/08/28 12:14:45;;;;;;;4.67;2.27;;;24.70;58.00;;;;;;4992248;28;20540;-75
2022/08/28 12:17:17;;;;;;;2.63;1.87;;;24.70;58.20;;;;;;4959002;28;20971;-74
2022/08/28 12:19:58;;;;;;;3.87;2.30;;;24.70;58.00;;;;;;4960192;28;20435;-75
2022/08/28 12:22:42;;;;;;;2.23;2.03;;;24.80;58.00;;;;;;4968282;28;20446;-74
2022/08/28 12:25:40;;;;;;;4.20;2.90;;;24.80;57.90;;;;;;4988335;28;20425;-75
2022/08/28 12:28:27;;;;;;;3.70;2.00;;;24.90;57.60;;;;;;4945727;28;20441;-74
2022/08/28 12:31:17;;;;;;;4.37;2.33;;;24.90;57.60;;;;;;4992871;28;20572;-74
2022/08/28 12:34:01;;;;;;;2.97;2.13;;;24.90;57.60;;;;;;4985264;28;20469;-74
2022/08/28 12:36:32;;;;;;;4.50;2.30;;;24.90;57.60;;;;;;4974389;28;20484;-74
2022/08/28 12:38:59;;;;;;;6.13;2.20;;;25.00;57.60;;;;;;4977842;28;20478;-75
2022/08/28 12:41:28;;;;;;;4.67;2.40;;;25.00;57.60;;;;;;4988424;28;20441;-78
2022/08/28 12:43:57;;;;;;;3.30;1.90;;;25.00;57.50;;;;;;4971642;28;20566;-77
2022/08/28 12:46:36;;;;;;;3.47;2.07;;;25.10;57.50;;;;;;4968856;28;20930;-73
2022/08/28 12:49:24;;;;;;;3.43;2.07;;;25.10;57.40;;;;;;4977979;28;20457;-73
2022/08/28 12:51:50;;;;;;;4.10;2.20;;;25.10;57.40;;;;;;4980176;28;20442;-74
2022/08/28 12:54:22;;;;;;;3.30;2.67;;;25.20;57.20;;;;;;4991208;28;20939;-73
2022/08/28 12:56:48;;;;;;;3.70;2.27;;;25.20;57.00;;;;;;4974853;28;20988;-74
2022/08/28 12:59:37;;;;;;;2.43;2.10;;;25.20;57.10;;;;;;4959280;28;20430;-75
2022/08/28 13:02:29;;;;;;;2.60;2.30;;;25.20;57.20;;;;;;4975807;28;20489;-75
2022/08/28 13:05:39;;;;;;;4.20;2.33;;;25.30;57.00;;;;;;4940779;28;20488;-74
2022/08/28 13:08:10;;;;;;;4.63;2.10;;;25.30;57.10;;;;;;4967934;28;20459;-74
2022/08/28 13:10:50;;;;;;;2.97;2.00;;;25.30;57.10;;;;;;4978349;28;20434;-74
2022/08/28 13:13:26;;;;;;;3.67;2.03;;;25.30;56.80;;;;;;4978414;28;20461;-76
2022/08/28 13:16:03;;;;;;;3.03;1.90;;;25.40;56.70;;;;;;4974630;28;20500;-76
2022/08/28 13:19:04;;;;;;;5.23;1.97;;;25.40;56.60;;;;;;4987327;28;20548;-75
2022/08/28 13:21:36;;;;;;;3.00;2.13;;;25.50;56.60;;;;;;4962367;28;20981;-76
2022/08/28 13:24:20;;;;;;;4.60;2.20;;;25.50;56.60;;;;;;4974534;28;20608;-76
2022/08/28 13:27:08;;;;;;;4.03;2.30;;;25.50;56.50;;;;;;4966817;28;20445;-76